createdAt,value
2023-09-29T00:00:13.964Z,100571.06
2023-09-29T00:04:27.534Z,100588.22
2023-09-29T00:08:40.084Z,100588.88
2023-09-29T00:12:52.970Z,100592.19
2023-09-29T00:17:05.286Z,100586.97
2023-09-29T00:21:17.684Z,100581.59
2023-09-29T00:25:30.279Z,100584.78
2023-09-29T00:29:43.450Z,100582.47
2023-09-29T00:33:56.657Z,100585.72
2023-09-29T00:38:09.215Z,100579.94
2023-09-29T00:42:21.719Z,100576.56
2023-09-29T00:46:34.200Z,100573.66
2023-09-29T00:50:46.972Z,100578.56
2023-09-29T00:54:59.687Z,100575.56
2023-09-29T00:59:12.212Z,100569.97
2023-09-29T01:03:24.926Z,100574.53
2023-09-29T01:07:38.938Z,100567.22
2023-09-29T01:11:51.371Z,100571.31
2023-09-29T01:16:03.819Z,100566.97
2023-09-29T01:20:22.902Z,100563.31
2023-09-29T01:24:35.299Z,100570.91
2023-09-29T01:28:51.784Z,100563.41
2023-09-29T01:33:04.400Z,100572.91
2023-09-29T01:37:17.468Z,100573.00
2023-09-29T01:41:31.183Z,100581.81
2023-09-29T01:45:43.915Z,100576.06
2023-09-29T01:49:56.266Z,100569.78
2023-09-29T01:54:08.611Z,100568.22
2023-09-29T01:58:21.045Z,100570.31
2023-09-29T02:02:33.439Z,100578.28
2023-09-29T02:06:46.287Z,100577.69
2023-09-29T02:10:58.760Z,100585.50
2023-09-29T02:15:11.491Z,100579.97
2023-09-29T02:19:23.964Z,100579.97
2023-09-29T02:23:38.212Z,100585.69
2023-09-29T02:27:50.584Z,100596.97
2023-09-29T02:32:03.881Z,100592.78
2023-09-29T02:36:16.247Z,100588.94
2023-09-29T02:40:30.127Z,100591.88
2023-09-29T02:44:42.589Z,100591.78
2023-09-29T02:48:55.284Z,100592.88
2023-09-29T02:53:09.475Z,100585.91
2023-09-29T02:57:25.176Z,100582.44
2023-09-29T03:01:37.601Z,100590.22
2023-09-29T03:05:50.001Z,100584.63
2023-09-29T03:10:02.521Z,100579.00
2023-09-29T03:14:17.347Z,100579.47
2023-09-29T03:18:31.702Z,100583.88
2023-09-29T03:22:46.377Z,100573.84
2023-09-29T03:26:58.862Z,100585.75
2023-09-29T03:31:11.397Z,100577.72
2023-09-29T03:35:23.752Z,100582.31
2023-09-29T03:39:36.117Z,100578.91
2023-09-29T03:43:48.529Z,100577.59
2023-09-29T03:48:04.909Z,100579.97
2023-09-29T03:52:17.349Z,100579.13
2023-09-29T03:56:29.723Z,100590.31
2023-09-29T04:00:42.602Z,100582.53
2023-09-29T04:04:56.057Z,100592.31
2023-09-29T04:09:09.690Z,100591.78
2023-09-29T04:13:22.047Z,100591.44
2023-09-29T04:17:35.448Z,100604.13
2023-09-29T04:21:47.943Z,100609.38
2023-09-29T04:26:00.528Z,100611.00
2023-09-29T04:30:14.111Z,100605.63
2023-09-29T04:34:26.624Z,100604.63
2023-09-29T04:38:39.083Z,100610.19
2023-09-29T04:42:52.939Z,100612.41
2023-09-29T04:47:05.937Z,100613.28
2023-09-29T04:51:18.314Z,100621.81
2023-09-29T04:55:30.758Z,100633.63
2023-09-29T04:59:43.559Z,100636.91
2023-09-29T05:03:56.221Z,100641.66
2023-09-29T05:08:09.366Z,100643.25
2023-09-29T05:12:21.739Z,100649.91
2023-09-29T05:16:34.173Z,100649.03
2023-09-29T05:20:46.584Z,100647.66
2023-09-29T05:25:00.504Z,100647.03
2023-09-29T05:29:12.875Z,100651.69
2023-09-29T05:33:25.592Z,100652.06
2023-09-29T05:37:37.984Z,100648.72
2023-09-29T05:41:51.537Z,100656.50
2023-09-29T05:46:04.186Z,100663.97
2023-09-29T05:50:19.486Z,100667.22
2023-09-29T05:54:32.257Z,100669.59
2023-09-29T05:58:44.684Z,100666.94
2023-09-29T06:02:57.380Z,100678.22
2023-09-29T06:07:10.700Z,100685.34
2023-09-29T06:11:23.821Z,100682.81
2023-09-29T06:15:36.304Z,100681.19
2023-09-29T06:19:49.749Z,100690.59
2023-09-29T06:24:02.239Z,100691.63
2023-09-29T06:28:14.657Z,100699.28
2023-09-29T06:32:27.076Z,100695.44
2023-09-29T06:36:40.208Z,100694.97
2023-09-29T06:40:52.871Z,100705.09
2023-09-29T06:45:07.517Z,100710.03
2023-09-29T06:49:20.014Z,100712.47
2023-09-29T06:53:33.104Z,100716.84
2023-09-29T06:57:45.607Z,100720.16
2023-09-29T07:01:58.087Z,100721.84
2023-09-29T07:06:10.475Z,100717.38
2023-09-29T07:10:22.968Z,100717.47
2023-09-29T07:14:35.332Z,100719.31
2023-09-29T07:18:49.388Z,100721.38
2023-09-29T07:23:04.444Z,100722.53
2023-09-29T07:27:18.286Z,100726.56
2023-09-29T07:31:39.712Z,100732.41
2023-09-29T07:35:52.284Z,100731.06
2023-09-29T07:40:05.334Z,100725.22
2023-09-29T07:44:18.320Z,100724.88
2023-09-29T07:48:30.955Z,100726.78
2023-09-29T07:52:43.347Z,100735.00
2023-09-29T07:56:55.700Z,100728.16
2023-09-29T08:01:08.226Z,100724.53
2023-09-29T08:05:21.422Z,100727.34
2023-09-29T08:09:33.788Z,100724.66
2023-09-29T08:13:48.182Z,100720.09
2023-09-29T08:18:00.576Z,100726.69
2023-09-29T08:22:14.585Z,100725.13
2023-09-29T08:26:28.669Z,100726.09
2023-09-29T08:30:44.889Z,100735.13
2023-09-29T08:34:57.327Z,100735.22
2023-09-29T08:39:09.956Z,100736.78
2023-09-29T08:43:22.548Z,100731.81
2023-09-29T08:47:37.773Z,100734.31
2023-09-29T08:51:51.197Z,100731.44
2023-09-29T08:56:07.048Z,100727.66
2023-09-29T09:00:21.313Z,100728.00
2023-09-29T09:04:34.021Z,100734.97
2023-09-29T09:08:49.767Z,100731.56
2023-09-29T09:13:06.989Z,100728.59
2023-09-29T09:17:20.188Z,100734.94
2023-09-29T09:21:36.286Z,100721.94
2023-09-29T09:25:49.168Z,100731.56
2023-09-29T09:30:01.909Z,100729.78
2023-09-29T09:34:14.965Z,100724.81
2023-09-29T09:38:33.313Z,100725.81
2023-09-29T09:42:48.056Z,100727.81
2023-09-29T09:47:05.492Z,100738.59
2023-09-29T09:51:35.851Z,100726.03
2023-09-29T09:56:02.859Z,100717.03
2023-09-29T10:00:16.557Z,100716.44
2023-09-29T10:04:29.827Z,100715.53
2023-09-29T10:08:43.603Z,100720.22
2023-09-29T10:12:56.805Z,100713.19
2023-09-29T10:17:09.325Z,100699.63
2023-09-29T10:21:23.223Z,100700.94
2023-09-29T10:25:37.943Z,100689.91
2023-09-29T10:29:54.636Z,100683.47
2023-09-29T10:34:07.094Z,100677.84
2023-09-29T10:38:37.759Z,100671.75
2023-09-29T10:42:55.647Z,100669.13
2023-09-29T10:47:09.021Z,100660.13
2023-09-29T10:51:32.776Z,100666.06
2023-09-29T10:55:55.985Z,100651.63
2023-09-29T11:00:09.331Z,100648.69
2023-09-29T11:04:22.571Z,100646.16
2023-09-29T11:08:44.484Z,100644.81
2023-09-29T11:12:56.922Z,100627.13
2023-09-29T11:17:09.650Z,100621.81
2023-09-29T11:21:36.371Z,100614.25
2023-09-29T11:25:58.226Z,100615.38
2023-09-29T11:30:12.284Z,100616.63
2023-09-29T11:34:33.455Z,100598.69
2023-09-29T11:38:47.151Z,100595.88
2023-09-29T11:42:59.706Z,100587.38
2023-09-29T11:47:15.040Z,100580.94
2023-09-29T11:51:27.553Z,100583.25
2023-09-29T11:55:39.992Z,100571.47
2023-09-29T11:59:55.100Z,100568.28
2023-09-29T12:04:08.225Z,100564.66
2023-09-29T12:08:20.964Z,100569.00
2023-09-29T12:12:34.520Z,100553.94
2023-09-29T12:16:47.307Z,100547.31
2023-09-29T12:21:00.843Z,100555.50
2023-09-29T12:25:15.864Z,100555.81
2023-09-29T12:29:31.635Z,100544.25
2023-09-29T12:33:53.435Z,100542.06
2023-09-29T12:38:06.971Z,100531.22
2023-09-29T12:42:19.559Z,100526.78
2023-09-29T12:46:33.224Z,100528.38
2023-09-29T12:50:45.701Z,100526.97
2023-09-29T12:55:00.482Z,100539.91
2023-09-29T12:59:14.971Z,100543.81
2023-09-29T13:03:28.503Z,100553.25
2023-09-29T13:07:41.319Z,100556.19
2023-09-29T13:11:54.404Z,100556.28
2023-09-29T13:16:07.066Z,100552.56
2023-09-29T13:20:20.247Z,100555.16
2023-09-29T13:24:32.963Z,100551.03
2023-09-29T13:28:46.725Z,100544.94
2023-09-29T13:32:59.313Z,100538.19
2023-09-29T13:37:13.192Z,100547.88
2023-09-29T13:41:26.078Z,100553.94
2023-09-29T13:45:38.523Z,100560.59
2023-09-29T13:49:50.949Z,100551.03
2023-09-29T13:54:04.019Z,100557.34
2023-09-29T13:58:16.280Z,100557.41
2023-09-29T14:02:28.758Z,100556.63
2023-09-29T14:06:41.065Z,100553.22
2023-09-29T14:10:53.465Z,100559.91
2023-09-29T14:15:06.732Z,100565.59
2023-09-29T14:19:19.420Z,100576.38
2023-09-29T14:23:34.706Z,100569.81
2023-09-29T14:27:48.270Z,100570.13
2023-09-29T14:32:02.235Z,100571.19
2023-09-29T14:36:14.672Z,100579.75
2023-09-29T14:40:28.335Z,100575.56
2023-09-29T14:44:40.833Z,100566.00
2023-09-29T14:48:53.158Z,100574.63
2023-09-29T14:53:05.660Z,100578.63
2023-09-29T14:57:19.629Z,100588.34
2023-09-29T15:01:32.177Z,100592.41
2023-09-29T15:05:44.625Z,100587.81
2023-09-29T15:09:57.663Z,100594.38
2023-09-29T15:14:10.093Z,100594.97
2023-09-29T15:18:22.648Z,100591.59
2023-09-29T15:22:35.370Z,100590.47
2023-09-29T15:26:48.077Z,100587.25
2023-09-29T15:31:01.273Z,100586.53
2023-09-29T15:35:15.048Z,100594.47
2023-09-29T15:39:27.443Z,100595.94
2023-09-29T15:43:40.064Z,100600.94
2023-09-29T15:47:52.661Z,100597.88
2023-09-29T15:52:05.413Z,100600.97
2023-09-29T15:56:17.821Z,100603.31
2023-09-29T16:00:32.955Z,100604.19
2023-09-29T16:04:47.186Z,100605.03
2023-09-29T16:09:01.061Z,100606.81
2023-09-29T16:13:16.195Z,100616.31
2023-09-29T16:17:30.270Z,100614.88
2023-09-29T16:21:44.152Z,100621.44
2023-09-29T16:25:59.549Z,100620.75
2023-09-29T16:30:15.310Z,100624.31
2023-09-29T16:34:27.868Z,100621.72
2023-09-29T16:38:41.924Z,100624.47
2023-09-29T16:42:54.653Z,100627.28
2023-09-29T16:47:07.101Z,100628.06
2023-09-29T16:51:21.522Z,100632.69
2023-09-29T16:55:34.605Z,100630.44
2023-09-29T16:59:47.777Z,100629.63
2023-09-29T17:04:01.929Z,100643.28
2023-09-29T17:08:14.697Z,100639.84
2023-09-29T17:12:28.514Z,100641.84
2023-09-29T17:16:45.146Z,100646.13
2023-09-29T17:20:59.980Z,100644.16
2023-09-29T17:25:12.587Z,100650.66
2023-09-29T17:29:25.091Z,100648.16
2023-09-29T17:33:38.737Z,100659.19
2023-09-29T17:37:51.389Z,100675.97
2023-09-29T17:42:04.178Z,100676.75
2023-09-29T17:46:16.937Z,100671.50
2023-09-29T17:50:29.643Z,100669.16
2023-09-29T17:54:42.460Z,100667.16
2023-09-29T17:58:55.242Z,100676.53
2023-09-29T18:03:07.850Z,100673.97
2023-09-29T18:07:23.200Z,100672.81
2023-09-29T18:11:39.077Z,100685.22
2023-09-29T18:15:51.679Z,100686.31
2023-09-29T18:20:06.956Z,100693.44
2023-09-29T18:24:19.355Z,100688.78
2023-09-29T18:28:32.949Z,100696.22
2023-09-29T18:32:45.384Z,100691.03
2023-09-29T18:36:58.033Z,100699.41
2023-09-29T18:41:17.892Z,100698.19
2023-09-29T18:45:31.115Z,100703.25
2023-09-29T18:49:45.749Z,100702.22
2023-09-29T18:53:58.189Z,100701.66
2023-09-29T18:58:10.763Z,100701.06
2023-09-29T19:02:23.152Z,100703.97
2023-09-29T19:06:37.510Z,100708.63
2023-09-29T19:10:50.032Z,100713.53
2023-09-29T19:15:02.916Z,100715.31
2023-09-29T19:19:15.644Z,100715.88
2023-09-29T19:23:29.064Z,100707.78
2023-09-29T19:27:41.413Z,100714.00
2023-09-29T19:31:54.250Z,100706.66
2023-09-29T19:36:07.082Z,100711.22
2023-09-29T19:40:21.394Z,100714.22
2023-09-29T19:44:33.794Z,100702.78
2023-09-29T19:48:46.573Z,100700.19
2023-09-29T19:52:59.617Z,100706.13
2023-09-29T19:57:12.647Z,100698.75
2023-09-29T20:01:25.268Z,100707.91
2023-09-29T20:05:44.439Z,100707.25
2023-09-29T20:09:56.970Z,100698.88
2023-09-29T20:14:10.317Z,100700.69
2023-09-29T20:18:23.904Z,100698.78
2023-09-29T20:22:36.388Z,100704.00
2023-09-29T20:26:53.251Z,100696.28
2023-09-29T20:31:12.557Z,100701.59
2023-09-29T20:35:28.353Z,100697.53
2023-09-29T20:39:43.244Z,100693.00
2023-09-29T20:43:57.725Z,100689.75
2023-09-29T20:48:12.127Z,100689.75
2023-09-29T20:52:25.560Z,100682.13
2023-09-29T20:56:42.535Z,100683.00
2023-09-29T21:00:58.625Z,100689.50
2023-09-29T21:05:15.032Z,100688.38
2023-09-29T21:09:27.568Z,100690.84
2023-09-29T21:13:40.007Z,100698.50
2023-09-29T21:17:52.570Z,100685.19
2023-09-29T21:22:05.312Z,100680.44
2023-09-29T21:26:18.070Z,100684.16
2023-09-29T21:30:31.177Z,100682.31
2023-09-29T21:34:43.625Z,100684.50
2023-09-29T21:38:57.237Z,100687.91
2023-09-29T21:43:09.658Z,100690.28
2023-09-29T21:47:24.837Z,100688.44
2023-09-29T21:51:43.168Z,100694.69
2023-09-29T21:55:59.702Z,100690.47
2023-09-29T22:00:18.700Z,100683.09
2023-09-29T22:04:32.370Z,100687.91
2023-09-29T22:08:47.600Z,100690.03
2023-09-29T22:13:02.390Z,100687.97
2023-09-29T22:17:14.821Z,100685.22
2023-09-29T22:21:30.259Z,100687.03
2023-09-29T22:25:47.888Z,100680.34
2023-09-29T22:30:03.211Z,100688.84
2023-09-29T22:34:15.817Z,100684.78
2023-09-29T22:38:28.616Z,100682.94
2023-09-29T22:42:41.136Z,100696.63
2023-09-29T22:46:55.070Z,100690.59
2023-09-29T22:51:07.946Z,100695.03
2023-09-29T22:55:21.283Z,100698.34
2023-09-29T22:59:34.147Z,100700.19
2023-09-29T23:03:47.005Z,100705.22
2023-09-29T23:07:59.458Z,100699.09
2023-09-29T23:12:12.073Z,100695.59
2023-09-29T23:16:24.716Z,100699.50
2023-09-29T23:20:40.485Z,100696.84
2023-09-29T23:24:52.888Z,100710.59
2023-09-29T23:29:06.290Z,100701.34
2023-09-29T23:33:18.963Z,100703.59
2023-09-29T23:37:32.813Z,100703.31
2023-09-29T23:41:46.858Z,100702.88
2023-09-29T23:46:06.584Z,100703.03
2023-09-29T23:50:19.485Z,100683.72
2023-09-29T23:54:31.876Z,100679.38
2023-09-29T23:58:44.257Z,100679.28
